Time;durP1;ratioP1;P1;durP2;ratioP2;P2;SDS_P1;SDS_P2;PMS_P1;PMS_P2;Temp;Humidity;BMP_temperature;BMP_pressure;BME280_temperature;BME280_humidity;BME280_pressure;Samples;Min_cycle;Max_cycle;Signal;HPM_P1;HPM_P2
2023/12/03 00:02:01;;;;;;;39.95;16.05;;;0.00;99.90;;;;;;4943146;28;20041;-74
2023/12/03 00:04:28;;;;;;;42.05;17.40;;;0.00;99.90;;;;;;4969330;28;20336;-74
2023/12/03 00:06:53;;;;;;;48.42;16.92;;;0.00;99.90;;;;;;4959720;28;20050;-74
2023/12/03 00:09:19;;;;;;;46.25;17.85;;;-0.10;99.90;;;;;;4949727;28;20038;-74
2023/12/03 00:11:45;;;;;;;39.97;16.17;;;0.50;99.90;;;;;;4949535;28;20523;-74
2023/12/03 00:14:10;;;;;;;40.08;15.88;;;-0.10;99.90;;;;;;4961919;28;20049;-74
2023/12/03 00:16:36;;;;;;;43.55;17.42;;;-0.10;99.90;;;;;;4926396;28;20123;-74
2023/12/03 00:19:02;;;;;;;38.67;16.13;;;-0.10;99.90;;;;;;4958921;28;20554;-74
2023/12/03 00:21:27;;;;;;;44.05;17.17;;;-0.10;99.90;;;;;;4943219;28;20609;-74
2023/12/03 00:23:53;;;;;;;48.08;17.13;;;-0.10;99.90;;;;;;4924006;28;20054;-74
2023/12/03 00:26:19;;;;;;;39.83;15.02;;;-0.10;99.90;;;;;;4926098;28;20434;-74
2023/12/03 00:28:44;;;;;;;47.25;18.75;;;-0.20;99.90;;;;;;4947438;28;20138;-74
2023/12/03 00:31:10;;;;;;;47.90;18.27;;;-0.10;99.90;;;;;;4932861;28;20039;-74
2023/12/03 00:33:36;;;;;;;36.13;16.90;;;-0.20;99.90;;;;;;4945896;28;20041;-74
2023/12/03 00:36:01;;;;;;;50.00;20.17;;;-0.20;99.90;;;;;;4955848;28;20070;-74
2023/12/03 00:38:27;;;;;;;50.38;18.00;;;-0.20;99.90;;;;;;4950788;28;20126;-74
2023/12/03 00:40:53;;;;;;;43.15;16.85;;;-0.20;99.90;;;;;;4944091;28;20031;-75
2023/12/03 00:43:19;;;;;;;47.95;18.13;;;0.90;99.90;;;;;;4950547;28;20049;-74
2023/12/03 00:45:44;;;;;;;43.72;16.77;;;-0.20;99.90;;;;;;4942733;28;20034;-74
2023/12/03 00:48:10;;;;;;;45.15;17.48;;;-0.20;99.90;;;;;;4949868;28;20567;-74
2023/12/03 00:50:36;;;;;;;39.22;16.52;;;-0.20;99.90;;;;;;4959799;28;20760;-74
2023/12/03 00:53:01;;;;;;;41.80;15.88;;;0.30;99.90;;;;;;4984058;28;20042;-74
2023/12/03 00:55:27;;;;;;;37.28;15.60;;;-0.20;99.90;;;;;;4954095;28;20110;-75
2023/12/03 00:57:53;;;;;;;39.92;16.08;;;-0.20;99.90;;;;;;4945538;28;20486;-74
2023/12/03 01:00:18;;;;;;;32.38;14.73;;;-0.20;99.90;;;;;;4956779;28;20485;-74
2023/12/03 01:02:44;;;;;;;37.25;15.48;;;-0.20;99.90;;;;;;4947242;28;20042;-74
2023/12/03 01:05:09;;;;;;;41.88;15.02;;;-0.20;99.90;;;;;;4952235;28;20451;-74
2023/12/03 01:07:35;;;;;;;36.60;15.50;;;-0.20;99.90;;;;;;4944006;28;20039;-74
2023/12/03 01:10:01;;;;;;;32.55;14.52;;;-0.20;99.90;;;;;;4965274;28;20042;-74
2023/12/03 01:12:26;;;;;;;33.13;12.40;;;-0.20;99.90;;;;;;4958954;28;20074;-74
2023/12/03 01:14:52;;;;;;;32.80;15.48;;;-0.20;99.90;;;;;;4995370;28;20031;-74
2023/12/03 01:17:18;;;;;;;38.00;15.10;;;-0.20;99.90;;;;;;4938156;28;20080;-74
2023/12/03 01:19:43;;;;;;;43.03;17.48;;;-0.20;99.90;;;;;;4964684;28;20098;-74
2023/12/03 01:22:09;;;;;;;33.60;14.45;;;-0.20;99.90;;;;;;4954148;28;20105;-74
2023/12/03 01:24:35;;;;;;;40.40;14.40;;;-0.20;99.90;;;;;;4967482;28;20501;-74
2023/12/03 01:27:00;;;;;;;33.55;14.75;;;-0.20;99.90;;;;;;4945737;28;20050;-74
2023/12/03 01:29:26;;;;;;;35.78;15.05;;;-0.30;99.90;;;;;;4949885;28;20039;-74
2023/12/03 01:31:52;;;;;;;47.28;19.13;;;-0.30;99.90;;;;;;4947250;28;20042;-74
2023/12/03 01:34:17;;;;;;;36.30;15.10;;;-0.30;99.90;;;;;;4936299;28;20043;-75
2023/12/03 01:36:43;;;;;;;33.85;15.55;;;-0.20;99.90;;;;;;4940614;28;20094;-74
2023/12/03 01:39:09;;;;;;;32.35;13.63;;;-0.30;99.90;;;;;;4917423;28;20039;-75
2023/12/03 01:41:34;;;;;;;37.35;14.82;;;-0.30;99.90;;;;;;4952456;28;20054;-74
2023/12/03 01:44:00;;;;;;;33.00;14.73;;;-0.20;99.90;;;;;;4949101;28;20411;-75
2023/12/03 01:46:27;;;;;;;35.38;16.13;;;-0.30;99.90;;;;;;4950913;28;20066;-74
2023/12/03 01:48:53;;;;;;;37.97;14.65;;;-0.20;99.90;;;;;;4956946;28;20054;-75
2023/12/03 01:51:19;;;;;;;32.28;13.63;;;-0.20;99.90;;;;;;4963337;28;20118;-74
2023/12/03 01:53:46;;;;;;;34.00;14.23;;;0.00;99.90;;;;;;4952728;28;20039;-74
2023/12/03 01:56:12;;;;;;;38.65;14.85;;;-0.20;99.90;;;;;;4951389;28;20478;-75
2023/12/03 01:58:39;;;;;;;40.15;16.55;;;-0.20;99.90;;;;;;4950755;28;20042;-75
2023/12/03 02:01:06;;;;;;;43.63;16.73;;;-0.20;99.90;;;;;;4968946;28;20066;-75
2023/12/03 02:03:31;;;;;;;39.15;14.38;;;-0.20;99.90;;;;;;4964130;28;20043;-75
2023/12/03 02:06:06;;;;;;;36.72;15.07;;;-0.20;99.90;;;;;;4956951;28;20663;-74
2023/12/03 02:08:32;;;;;;;37.83;16.17;;;-0.20;99.90;;;;;;4967451;28;20481;-75
2023/12/03 02:11:04;;;;;;;35.53;15.82;;;-0.20;99.90;;;;;;4948309;28;20058;-75
2023/12/03 02:13:32;;;;;;;38.78;14.60;;;-0.20;99.90;;;;;;4951444;28;20053;-75
2023/12/03 02:15:58;;;;;;;34.10;14.95;;;-0.20;99.90;;;;;;4954515;28;20062;-74
2023/12/03 02:18:25;;;;;;;41.80;15.50;;;-0.10;99.90;;;;;;4967361;28;20077;-74
2023/12/03 02:20:51;;;;;;;46.63;18.33;;;-0.10;99.90;;;;;;4957575;28;20105;-74
2023/12/03 02:23:17;;;;;;;39.28;17.17;;;-0.10;99.90;;;;;;4971098;28;20497;-75
2023/12/03 02:25:43;;;;;;;35.60;15.30;;;-0.10;99.90;;;;;;4949299;28;20411;-74
2023/12/03 02:28:08;;;;;;;44.85;17.10;;;0.10;99.90;;;;;;4931433;28;20030;-75
2023/12/03 02:30:34;;;;;;;48.42;16.90;;;1.20;99.90;;;;;;4969817;28;20071;-75
2023/12/03 02:33:00;;;;;;;40.13;17.60;;;-0.10;99.90;;;;;;4962878;28;20038;-74
2023/12/03 02:35:26;;;;;;;39.10;16.17;;;-0.10;99.90;;;;;;4959617;28;20050;-74
2023/12/03 02:37:51;;;;;;;53.45;16.58;;;-0.10;99.90;;;;;;4954234;28;20054;-74
2023/12/03 02:40:17;;;;;;;48.67;16.95;;;-0.10;99.90;;;;;;4938419;28;20043;-75
2023/12/03 02:42:43;;;;;;;37.42;15.13;;;-0.10;99.90;;;;;;4927183;28;20250;-74
2023/12/03 02:45:10;;;;;;;57.47;18.08;;;0.00;99.90;;;;;;4973297;28;20093;-75
2023/12/03 02:47:36;;;;;;;55.13;17.70;;;0.00;99.90;;;;;;4970930;28;20051;-75
2023/12/03 02:50:02;;;;;;;61.47;17.77;;;0.00;99.90;;;;;;4966466;28;20054;-74
2023/12/03 02:52:27;;;;;;;51.10;16.92;;;0.00;99.90;;;;;;4958245;28;20047;-74
2023/12/03 02:54:53;;;;;;;93.15;18.98;;;0.00;99.90;;;;;;4951564;28;20039;-74
2023/12/03 02:57:19;;;;;;;50.17;16.38;;;0.00;99.90;;;;;;4959972;28;20477;-74
2023/12/03 02:59:44;;;;;;;48.75;17.10;;;0.00;99.90;;;;;;4971931;28;20042;-75
2023/12/03 03:02:10;;;;;;;84.75;18.90;;;0.00;99.90;;;;;;4965354;28;20039;-74
2023/12/03 03:04:36;;;;;;;65.20;17.20;;;0.60;99.90;;;;;;4966963;28;20042;-74
2023/12/03 03:07:01;;;;;;;50.35;18.30;;;0.00;99.90;;;;;;4957676;28;20043;-74
2023/12/03 03:09:27;;;;;;;68.90;18.00;;;0.00;99.90;;;;;;4964144;28;20085;-75
2023/12/03 03:11:54;;;;;;;73.38;17.27;;;0.00;99.90;;;;;;4939088;28;20119;-75
2023/12/03 03:14:20;;;;;;;55.33;17.52;;;0.00;99.90;;;;;;4964365;28;20416;-74
2023/12/03 03:16:46;;;;;;;46.83;16.73;;;0.50;99.90;;;;;;4964056;28;20039;-74
2023/12/03 03:19:11;;;;;;;56.55;17.05;;;0.00;99.90;;;;;;4966668;28;20085;-74
2023/12/03 03:21:38;;;;;;;64.43;17.90;;;0.00;99.90;;;;;;4937525;28;20039;-74
2023/12/03 03:24:05;;;;;;;66.10;19.92;;;0.10;99.90;;;;;;4960433;28;20408;-74
2023/12/03 03:26:30;;;;;;;78.55;21.20;;;0.00;99.90;;;;;;4948200;28;20042;-74
2023/12/03 03:28:56;;;;;;;61.60;18.17;;;0.10;99.90;;;;;;4947517;28;20134;-74
2023/12/03 03:31:22;;;;;;;62.60;20.33;;;0.00;99.90;;;;;;4945311;28;20051;-74
2023/12/03 03:33:49;;;;;;;57.65;17.70;;;0.00;99.90;;;;;;4913915;28;20049;-74
2023/12/03 03:36:15;;;;;;;69.85;19.60;;;0.00;99.90;;;;;;4943391;28;20078;-74
2023/12/03 03:38:43;;;;;;;136.82;21.58;;;0.00;99.90;;;;;;4957450;28;20492;-74
2023/12/03 03:41:09;;;;;;;125.50;20.58;;;0.00;99.90;;;;;;4958309;28;20485;-74
2023/12/03 03:43:35;;;;;;;103.10;20.63;;;0.00;99.90;;;;;;4933891;28;20508;-74
2023/12/03 03:46:00;;;;;;;81.30;18.83;;;0.00;99.90;;;;;;4958852;28;20070;-74
2023/12/03 03:48:26;;;;;;;62.75;15.23;;;0.00;99.90;;;;;;4956238;28;20091;-74
2023/12/03 03:50:52;;;;;;;95.80;21.02;;;0.00;99.90;;;;;;4966924;28;20066;-74
2023/12/03 03:53:17;;;;;;;102.97;19.50;;;0.50;99.90;;;;;;4945154;28;20039;-74
2023/12/03 03:55:43;;;;;;;57.45;17.55;;;0.00;99.90;;;;;;4949083;28;20034;-75
2023/12/03 03:58:09;;;;;;;91.32;17.48;;;0.00;99.90;;;;;;4946924;28;20320;-75
2023/12/03 04:00:34;;;;;;;54.40;16.00;;;0.00;99.90;;;;;;4949779;28;20507;-75
2023/12/03 04:03:00;;;;;;;89.35;18.70;;;0.00;99.90;;;;;;4948777;28;20401;-75
2023/12/03 04:05:26;;;;;;;48.00;15.85;;;0.00;99.90;;;;;;4946664;28;20189;-74
2023/12/03 04:07:51;;;;;;;62.08;16.98;;;0.10;99.90;;;;;;4960521;28;20039;-74
2023/12/03 04:10:17;;;;;;;54.00;16.88;;;0.00;99.90;;;;;;4950187;28;20558;-74
2023/12/03 04:12:43;;;;;;;72.78;18.90;;;0.00;99.90;;;;;;4949842;28;20489;-75
2023/12/03 04:15:09;;;;;;;73.13;18.83;;;0.00;99.90;;;;;;4952800;28;20034;-74
2023/12/03 04:17:35;;;;;;;61.80;18.13;;;0.00;99.90;;;;;;4945971;28;20038;-75
2023/12/03 04:20:01;;;;;;;49.47;16.25;;;0.00;99.90;;;;;;4949647;28;20415;-75
2023/12/03 04:22:26;;;;;;;66.00;18.92;;;0.00;99.90;;;;;;4928504;28;20039;-74
2023/12/03 04:24:52;;;;;;;64.80;17.92;;;0.10;99.90;;;;;;4936213;28;20042;-74
2023/12/03 04:27:18;;;;;;;64.57;16.63;;;0.00;99.90;;;;;;4957809;28;20485;-75
2023/12/03 04:29:43;;;;;;;60.03;15.38;;;0.10;99.90;;;;;;4963511;28;20055;-75
2023/12/03 04:32:09;;;;;;;76.93;16.52;;;0.10;99.90;;;;;;4955980;28;20031;-74
2023/12/03 04:34:35;;;;;;;74.90;17.27;;;0.10;99.90;;;;;;4917718;28;20042;-74
2023/12/03 04:37:01;;;;;;;59.83;16.33;;;0.10;99.90;;;;;;4953982;28;20125;-74
2023/12/03 04:39:26;;;;;;;54.80;16.75;;;0.50;99.90;;;;;;4947510;28;20484;-74
2023/12/03 04:41:52;;;;;;;45.00;16.00;;;0.10;99.90;;;;;;4948988;28;21091;-75
2023/12/03 04:44:18;;;;;;;72.32;17.77;;;0.10;99.90;;;;;;4955921;28;20058;-75
2023/12/03 04:46:43;;;;;;;52.17;15.88;;;0.10;99.90;;;;;;4944352;28;20696;-75
2023/12/03 04:49:09;;;;;;;62.80;17.67;;;0.10;99.90;;;;;;4964850;28;20038;-75
2023/12/03 04:51:35;;;;;;;50.13;15.68;;;0.10;99.90;;;;;;4933845;28;20073;-75
2023/12/03 04:54:00;;;;;;;73.40;18.00;;;0.10;99.90;;;;;;4938327;28;20560;-74
2023/12/03 04:56:26;;;;;;;88.15;19.52;;;0.10;99.90;;;;;;4962603;28;20456;-75
2023/12/03 04:58:52;;;;;;;74.80;19.15;;;0.10;99.90;;;;;;4939198;28;20670;-74
2023/12/03 05:01:18;;;;;;;64.15;17.70;;;0.10;99.90;;;;;;4960712;28;20035;-74
2023/12/03 05:03:45;;;;;;;79.30;17.33;;;0.10;99.90;;;;;;4956102;28;20097;-75
2023/12/03 05:06:11;;;;;;;62.78;17.40;;;0.10;99.90;;;;;;4932220;28;20043;-75
2023/12/03 05:08:37;;;;;;;55.90;15.95;;;0.50;99.90;;;;;;4946422;28;20047;-75
2023/12/03 05:11:04;;;;;;;78.43;17.70;;;0.10;99.90;;;;;;4945345;28;20086;-74
2023/12/03 05:13:31;;;;;;;53.88;17.38;;;0.10;99.90;;;;;;4965836;28;20259;-75
2023/12/03 05:15:56;;;;;;;45.67;14.77;;;0.10;99.90;;;;;;4931657;28;20408;-74
2023/12/03 05:18:22;;;;;;;61.05;16.25;;;0.10;99.90;;;;;;4964532;28;20046;-74
2023/12/03 05:20:48;;;;;;;56.50;15.05;;;0.10;99.90;;;;;;4960394;28;20074;-74
2023/12/03 05:23:14;;;;;;;48.75;14.80;;;0.10;99.90;;;;;;4951975;28;20038;-75
2023/12/03 05:25:40;;;;;;;56.53;15.10;;;0.20;99.90;;;;;;4952186;28;20046;-75
2023/12/03 05:28:06;;;;;;;58.08;16.33;;;0.10;99.90;;;;;;4957199;28;20039;-74
2023/12/03 05:30:32;;;;;;;68.47;17.67;;;0.20;99.90;;;;;;4947954;28;20409;-75
2023/12/03 05:32:58;;;;;;;67.75;17.88;;;0.20;99.90;;;;;;4966667;28;20338;-74
2023/12/03 05:35:24;;;;;;;47.75;16.23;;;0.20;99.90;;;;;;4956852;28;20038;-75
2023/12/03 05:37:50;;;;;;;47.72;14.98;;;0.20;99.90;;;;;;4945296;28;20092;-74
2023/12/03 05:40:16;;;;;;;39.05;13.65;;;0.20;99.90;;;;;;4951343;28;20122;-75
2023/12/03 05:42:41;;;;;;;59.75;16.27;;;0.20;99.90;;;;;;4963805;28;20130;-75
2023/12/03 05:45:08;;;;;;;57.20;16.33;;;0.20;99.90;;;;;;4964545;28;20090;-75
2023/12/03 05:47:34;;;;;;;49.15;15.75;;;0.20;99.90;;;;;;4943391;28;20256;-75
2023/12/03 05:50:02;;;;;;;41.80;15.80;;;0.20;99.90;;;;;;4944268;28;20043;-74
2023/12/03 05:52:28;;;;;;;66.65;15.98;;;0.20;99.90;;;;;;4958260;28;20046;-75
2023/12/03 05:54:54;;;;;;;41.58;14.73;;;0.60;99.90;;;;;;4951245;28;20039;-75
2023/12/03 05:57:20;;;;;;;49.33;15.00;;;0.20;99.90;;;;;;4929369;28;20046;-74
2023/12/03 05:59:46;;;;;;;51.90;16.20;;;0.20;99.90;;;;;;4959592;28;20044;-74
2023/12/03 06:02:13;;;;;;;43.03;14.63;;;0.20;99.90;;;;;;4955017;28;20051;-74
2023/12/03 06:04:39;;;;;;;51.08;14.18;;;0.20;99.90;;;;;;4968814;28;20054;-74
2023/12/03 06:07:05;;;;;;;55.25;15.55;;;0.20;99.90;;;;;;4960984;28;20035;-75
2023/12/03 06:09:31;;;;;;;62.80;17.15;;;0.20;99.90;;;;;;4944066;28;20039;-74
2023/12/03 06:11:56;;;;;;;54.75;14.55;;;0.30;99.90;;;;;;4925080;28;20070;-74
2023/12/03 06:14:22;;;;;;;52.70;16.15;;;0.20;99.90;;;;;;4957150;28;20523;-74
2023/12/03 06:16:48;;;;;;;47.55;14.60;;;0.20;99.90;;;;;;4940185;28;20043;-75
2023/12/03 06:19:14;;;;;;;61.47;15.13;;;0.30;99.90;;;;;;4956847;28;20049;-75
2023/12/03 06:21:39;;;;;;;53.97;14.80;;;0.30;99.90;;;;;;4963978;28;20046;-75
2023/12/03 06:24:05;;;;;;;70.53;15.43;;;0.30;99.90;;;;;;4960106;28;20043;-74
2023/12/03 06:26:31;;;;;;;59.13;16.08;;;0.30;99.90;;;;;;4955740;28;20035;-75
2023/12/03 06:28:57;;;;;;;65.13;17.75;;;0.30;99.90;;;;;;4936786;28;20098;-74
2023/12/03 06:31:23;;;;;;;49.20;15.27;;;0.30;99.90;;;;;;4958524;28;20046;-75
2023/12/03 06:33:48;;;;;;;64.15;17.83;;;0.30;99.90;;;;;;4961589;28;20098;-75
2023/12/03 06:36:14;;;;;;;51.40;13.40;;;0.30;99.90;;;;;;4917679;28;20489;-75
2023/12/03 06:38:40;;;;;;;60.60;16.10;;;0.30;99.90;;;;;;4941715;28;20035;-75
2023/12/03 06:41:06;;;;;;;59.08;18.08;;;0.30;99.90;;;;;;4944117;28;20039;-75
2023/12/03 06:43:32;;;;;;;58.45;15.18;;;0.40;99.90;;;;;;4947423;28;20047;-75
2023/12/03 06:46:00;;;;;;;64.88;16.55;;;0.40;99.90;;;;;;4944875;28;20043;-75
2023/12/03 06:48:26;;;;;;;48.38;13.93;;;0.50;99.90;;;;;;4963700;28;20050;-74
2023/12/03 06:50:55;;;;;;;61.83;16.98;;;0.40;99.90;;;;;;4964619;28;20357;-75
2023/12/03 06:53:21;;;;;;;49.85;16.10;;;0.40;99.90;;;;;;4948066;28;20043;-75
2023/12/03 06:55:46;;;;;;;45.70;15.57;;;0.40;99.90;;;;;;4928955;28;20109;-75
2023/12/03 06:58:12;;;;;;;46.45;14.02;;;0.40;99.90;;;;;;4966585;28;20065;-75
2023/12/03 07:00:38;;;;;;;53.10;15.02;;;0.40;99.90;;;;;;4929960;28;20093;-75
2023/12/03 07:03:04;;;;;;;53.15;15.85;;;0.50;99.90;;;;;;4945324;28;20070;-75
2023/12/03 07:05:29;;;;;;;45.78;15.25;;;0.50;99.90;;;;;;4950934;28;20081;-75
2023/12/03 07:07:55;;;;;;;44.08;13.73;;;0.50;99.90;;;;;;4962740;28;20093;-75
2023/12/03 07:10:21;;;;;;;45.28;15.13;;;0.50;99.90;;;;;;4943907;28;20037;-75
2023/12/03 07:12:46;;;;;;;47.15;13.93;;;0.80;99.90;;;;;;4950365;28;20071;-75
2023/12/03 07:15:12;;;;;;;47.38;15.00;;;0.50;99.90;;;;;;4970094;28;20524;-75
2023/12/03 07:17:41;;;;;;;48.30;14.55;;;0.50;99.90;;;;;;4918345;28;20404;-75
2023/12/03 07:20:08;;;;;;;54.15;15.20;;;0.50;99.90;;;;;;4958231;28;20102;-75
2023/12/03 07:22:33;;;;;;;41.95;13.80;;;0.60;99.90;;;;;;4943081;28;20421;-75
2023/12/03 07:24:59;;;;;;;50.92;16.27;;;0.60;99.90;;;;;;4964127;28;20046;-75
2023/12/03 07:27:25;;;;;;;57.92;15.93;;;1.10;99.90;;;;;;4960682;28;20102;-75
2023/12/03 07:29:56;;;;;;;55.30;15.30;;;0.60;99.90;;;;;;4949891;28;20432;-75
2023/12/03 07:32:25;;;;;;;49.70;15.35;;;0.60;99.90;;;;;;4966954;28;20039;-75
2023/12/03 07:34:51;;;;;;;63.95;15.73;;;0.50;99.90;;;;;;4946378;28;20162;-75
2023/12/03 07:37:17;;;;;;;56.28;16.80;;;0.60;99.90;;;;;;4962159;28;20039;-75
2023/12/03 07:39:43;;;;;;;46.60;15.43;;;0.60;99.90;;;;;;4934644;28;20050;-75
2023/12/03 07:42:08;;;;;;;49.40;16.75;;;0.60;99.90;;;;;;4932792;28;20485;-75
2023/12/03 07:44:34;;;;;;;44.72;16.27;;;0.60;99.90;;;;;;4965738;28;20038;-75
2023/12/03 07:47:01;;;;;;;61.95;16.95;;;0.60;99.90;;;;;;4922118;28;20310;-74
2023/12/03 07:49:26;;;;;;;52.17;16.63;;;0.60;99.90;;;;;;4964657;28;20059;-74
2023/12/03 07:51:52;;;;;;;65.07;17.48;;;0.60;99.90;;;;;;4950851;28;20034;-75
2023/12/03 07:54:18;;;;;;;58.20;16.25;;;1.80;99.90;;;;;;4957485;28;20126;-75
2023/12/03 07:56:43;;;;;;;49.70;15.52;;;0.60;99.90;;;;;;4960691;28;20035;-74
2023/12/03 07:59:09;;;;;;;53.28;16.10;;;0.60;99.90;;;;;;4949053;28;20043;-74
2023/12/03 08:01:36;;;;;;;55.97;17.42;;;0.60;99.90;;;;;;4948706;28;20126;-75
2023/12/03 08:04:03;;;;;;;56.42;16.02;;;0.60;99.90;;;;;;4956519;28;20038;-75
2023/12/03 08:06:30;;;;;;;58.72;17.02;;;0.60;99.90;;;;;;4956406;28;20039;-74
2023/12/03 08:08:57;;;;;;;59.88;15.60;;;0.60;99.90;;;;;;4949891;28;20113;-75
2023/12/03 08:11:23;;;;;;;50.90;15.88;;;0.60;99.90;;;;;;4933635;29;20046;-74
2023/12/03 08:13:48;;;;;;;43.72;14.38;;;0.60;99.90;;;;;;4947835;28;20035;-76
2023/12/03 08:16:14;;;;;;;44.45;14.68;;;0.60;99.90;;;;;;4949862;28;20049;-75
2023/12/03 08:18:40;;;;;;;45.42;13.07;;;0.60;99.90;;;;;;4957356;28;20074;-75
2023/12/03 08:21:06;;;;;;;38.10;13.70;;;1.00;99.90;;;;;;4950415;28;20129;-75
2023/12/03 08:23:32;;;;;;;52.22;15.07;;;0.70;99.90;;;;;;4930175;28;20122;-75
2023/12/03 08:25:58;;;;;;;44.15;13.43;;;0.70;99.90;;;;;;4943997;28;20604;-75
2023/12/03 08:28:24;;;;;;;46.95;16.05;;;2.10;99.90;;;;;;4962380;28;20051;-75
2023/12/03 08:30:50;;;;;;;51.17;15.18;;;0.70;99.90;;;;;;4958946;28;20112;-75
2023/12/03 08:33:15;;;;;;;41.88;15.35;;;0.70;99.90;;;;;;4961199;28;20039;-75
2023/12/03 08:35:41;;;;;;;47.45;16.65;;;0.70;99.90;;;;;;4938886;28;20492;-76
2023/12/03 08:38:07;;;;;;;47.33;13.95;;;0.70;99.90;;;;;;4929320;28;20365;-75
2023/12/03 08:40:33;;;;;;;39.13;14.00;;;0.80;99.90;;;;;;4965699;28;20053;-76
2023/12/03 08:42:59;;;;;;;50.30;15.00;;;0.80;99.90;;;;;;4968341;28;20045;-76
2023/12/03 08:45:25;;;;;;;45.20;13.93;;;0.80;99.90;;;;;;4947491;28;20524;-75
2023/12/03 08:47:51;;;;;;;49.95;14.55;;;0.80;99.90;;;;;;4964333;28;20134;-75
2023/12/03 08:50:16;;;;;;;49.47;15.77;;;0.80;99.90;;;;;;4957884;28;20051;-76
2023/12/03 08:52:42;;;;;;;52.92;15.98;;;0.90;99.90;;;;;;4945705;28;20035;-75
2023/12/03 08:55:08;;;;;;;58.88;15.90;;;0.90;99.90;;;;;;4965408;28;20043;-75
2023/12/03 08:57:35;;;;;;;55.38;17.00;;;0.90;99.90;;;;;;4971084;28;20526;-75
2023/12/03 09:00:00;;;;;;;45.85;14.43;;;0.90;99.90;;;;;;4954213;28;20508;-75
2023/12/03 09:02:26;;;;;;;47.00;15.30;;;1.00;99.90;;;;;;4960400;28;20039;-75
2023/12/03 09:04:52;;;;;;;42.28;16.00;;;1.00;99.90;;;;;;4953927;28;20043;-75
2023/12/03 09:07:18;;;;;;;54.83;17.30;;;1.00;99.90;;;;;;4953981;28;20039;-75
2023/12/03 09:09:44;;;;;;;52.83;16.60;;;1.00;99.90;;;;;;4958953;28;20043;-75
2023/12/03 09:12:10;;;;;;;47.17;15.23;;;1.00;99.90;;;;;;4958079;28;20432;-75
2023/12/03 09:14:35;;;;;;;56.85;18.15;;;1.00;99.90;;;;;;4970681;28;20031;-75
2023/12/03 09:17:03;;;;;;;50.53;18.45;;;1.00;99.90;;;;;;4961037;28;20099;-75
2023/12/03 09:19:29;;;;;;;53.15;18.90;;;1.10;99.90;;;;;;4959129;28;20061;-75
2023/12/03 09:21:55;;;;;;;46.10;17.00;;;1.10;99.90;;;;;;4963031;28;20476;-75
2023/12/03 09:24:21;;;;;;;53.75;18.17;;;1.10;99.90;;;;;;4970617;28;20039;-75
2023/12/03 09:26:47;;;;;;;46.83;16.70;;;1.10;99.90;;;;;;4935723;28;20463;-75
2023/12/03 09:29:13;;;;;;;55.25;18.05;;;1.20;99.90;;;;;;4955054;28;20043;-75
2023/12/03 09:31:39;;;;;;;44.67;15.43;;;1.20;99.90;;;;;;4965078;28;20043;-75
2023/12/03 09:34:06;;;;;;;59.20;20.52;;;1.20;99.90;;;;;;4970724;28;20102;-75
2023/12/03 09:36:31;;;;;;;53.33;18.98;;;1.30;99.90;;;;;;4970289;28;20039;-75
2023/12/03 09:38:57;;;;;;;47.35;18.85;;;1.30;99.90;;;;;;4953311;28;20147;-75
2023/12/03 09:41:24;;;;;;;41.95;16.15;;;1.40;99.90;;;;;;4953357;28;20118;-75
2023/12/03 09:43:59;;;;;;;47.03;19.77;;;1.40;99.90;;;;;;4970070;28;20066;-75
2023/12/03 09:46:25;;;;;;;48.53;17.42;;;1.40;99.90;;;;;;4963366;28;20146;-75
2023/12/03 09:48:53;;;;;;;51.38;19.33;;;1.50;99.90;;;;;;4948048;28;20055;-75
2023/12/03 09:51:19;;;;;;;36.10;17.23;;;1.50;99.90;;;;;;4965214;28;20452;-75
2023/12/03 09:53:50;;;;;;;48.97;18.80;;;1.50;99.90;;;;;;4942749;28;20033;-75
2023/12/03 09:56:18;;;;;;;41.15;18.42;;;1.40;99.90;;;;;;4967616;28;20385;-75
2023/12/03 09:58:45;;;;;;;45.28;18.70;;;1.40;99.90;;;;;;4966277;28;20042;-74
2023/12/03 10:01:12;;;;;;;46.13;19.38;;;1.30;99.90;;;;;;4944079;28;20554;-75
2023/12/03 10:03:38;;;;;;;43.90;19.70;;;1.30;99.90;;;;;;4963222;28;20509;-75
2023/12/03 10:06:04;;;;;;;42.20;20.00;;;1.20;99.90;;;;;;4947087;28;20047;-75
2023/12/03 10:08:33;;;;;;;37.55;17.63;;;1.20;99.90;;;;;;4944788;28;20046;-75
2023/12/03 10:11:03;;;;;;;37.90;18.45;;;1.20;99.90;;;;;;4961817;28;20035;-75
2023/12/03 10:13:31;;;;;;;40.38;18.25;;;1.40;99.90;;;;;;4947566;28;20733;-75
2023/12/03 10:15:57;;;;;;;45.67;19.52;;;1.30;99.90;;;;;;4963943;28;20034;-75
2023/12/03 10:18:23;;;;;;;54.70;19.90;;;1.40;99.90;;;;;;4948910;28;20054;-75
2023/12/03 10:21:09;;;;;;;48.72;19.65;;;1.60;99.90;;;;;;4950792;28;20412;-75
2023/12/03 10:23:36;;;;;;;42.78;20.80;;;1.40;99.90;;;;;;4964620;28;20042;-75
2023/12/03 10:26:15;;;;;;;41.67;18.40;;;1.40;99.90;;;;;;4959475;28;20042;-75
2023/12/03 10:28:41;;;;;;;36.42;18.65;;;1.40;99.90;;;;;;4946848;28;20039;-75
2023/12/03 10:31:14;;;;;;;39.97;19.10;;;1.40;99.90;;;;;;4951415;28;20169;-74
2023/12/03 10:33:43;;;;;;;41.38;19.02;;;1.50;99.90;;;;;;4978142;28;20038;-74
2023/12/03 10:36:09;;;;;;;42.15;19.15;;;1.50;99.90;;;;;;4954721;28;20046;-75
2023/12/03 10:38:43;;;;;;;41.22;19.70;;;1.50;99.90;;;;;;4956669;28;20671;-74
2023/12/03 10:41:10;;;;;;;44.50;20.17;;;1.60;99.90;;;;;;4965164;28;20583;-74
2023/12/03 10:43:38;;;;;;;45.13;19.38;;;1.60;99.90;;;;;;4970962;28;20409;-74
2023/12/03 10:46:05;;;;;;;42.47;19.92;;;1.70;99.90;;;;;;4970267;28;20038;-74
2023/12/03 10:48:32;;;;;;;42.35;17.48;;;1.80;99.90;;;;;;4971405;28;20050;-74
2023/12/03 10:51:05;;;;;;;37.90;18.70;;;1.90;99.90;;;;;;4953005;28;20042;-74
2023/12/03 10:53:32;;;;;;;40.97;21.92;;;1.90;99.90;;;;;;4968751;28;20042;-74
2023/12/03 10:56:00;;;;;;;38.03;19.08;;;1.90;99.90;;;;;;4956590;28;20031;-74
2023/12/03 10:58:25;;;;;;;42.35;19.95;;;1.90;99.90;;;;;;4971854;28;20102;-74
2023/12/03 11:01:06;;;;;;;39.70;18.92;;;2.00;99.90;;;;;;4940742;28;20163;-75
2023/12/03 11:03:53;;;;;;;44.13;18.95;;;2.00;99.90;;;;;;4973303;28;20205;-74
2023/12/03 11:06:25;;;;;;;33.00;17.45;;;2.10;99.90;;;;;;4968380;28;20125;-75
2023/12/03 11:08:55;;;;;;;35.45;15.73;;;2.60;99.90;;;;;;4964249;28;20047;-75
2023/12/03 11:11:22;;;;;;;30.33;14.52;;;2.20;99.90;;;;;;4971102;28;20039;-75
2023/12/03 11:13:56;;;;;;;35.50;17.75;;;2.10;99.90;;;;;;4960198;28;20039;-75
2023/12/03 11:16:22;;;;;;;37.08;18.95;;;2.10;99.90;;;;;;4956864;28;20043;-74
2023/12/03 11:18:58;;;;;;;27.27;15.18;;;2.10;99.90;;;;;;4968664;28;20096;-75
2023/12/03 11:22:07;;;;;;;45.05;19.25;;;2.10;99.90;;;;;;4951489;28;20043;-75
2023/12/03 11:24:47;;;;;;;40.72;18.65;;;2.10;99.90;;;;;;4958571;28;20050;-75
2023/12/03 11:27:13;;;;;;;39.70;17.13;;;2.10;99.90;;;;;;4972348;28;20051;-75
2023/12/03 11:29:50;;;;;;;29.73;16.88;;;2.20;99.90;;;;;;4940653;28;20034;-74
2023/12/03 11:32:20;;;;;;;39.53;18.40;;;2.20;99.90;;;;;;4972484;28;20050;-75
2023/12/03 11:35:05;;;;;;;40.15;17.52;;;2.20;99.90;;;;;;4956193;28;20034;-75
2023/12/03 11:37:30;;;;;;;33.17;17.05;;;2.60;99.90;;;;;;4972579;28;20065;-75
2023/12/03 11:40:07;;;;;;;30.35;16.35;;;2.10;99.90;;;;;;4956365;28;20114;-74
2023/12/03 11:42:32;;;;;;;31.42;15.32;;;2.00;99.90;;;;;;4972462;28;20078;-75
2023/12/03 11:45:21;;;;;;;28.65;13.27;;;1.90;99.90;;;;;;4967165;28;20082;-75
2023/12/03 11:48:07;;;;;;;34.08;17.15;;;1.80;99.90;;;;;;4968485;28;20054;-74
2023/12/03 11:50:50;;;;;;;31.35;15.05;;;1.70;99.90;;;;;;4960802;28;20426;-74
2023/12/03 11:53:17;;;;;;;30.13;15.25;;;1.70;99.90;;;;;;4953000;28;20035;-75
2023/12/03 11:55:48;;;;;;;30.40;15.90;;;1.60;99.90;;;;;;4953307;28;20107;-75
2023/12/03 11:58:15;;;;;;;38.00;15.95;;;1.50;99.90;;;;;;4950044;28;20038;-75
2023/12/03 12:00:40;;;;;;;35.63;16.08;;;1.50;99.90;;;;;;4963293;28;20034;-75
2023/12/03 12:03:07;;;;;;;31.52;15.38;;;1.50;99.90;;;;;;4963458;28;20604;-75
2023/12/03 12:05:41;;;;;;;39.92;15.63;;;1.40;99.90;;;;;;4954170;28;20097;-74
2023/12/03 12:08:07;;;;;;;38.88;17.17;;;1.30;99.90;;;;;;4965955;28;20113;-74
2023/12/03 12:10:34;;;;;;;35.72;16.77;;;1.40;99.90;;;;;;4968337;28;20035;-74
2023/12/03 12:13:01;;;;;;;42.83;18.90;;;1.40;99.90;;;;;;4952760;28;20512;-75
2023/12/03 12:15:27;;;;;;;39.55;19.25;;;1.30;99.90;;;;;;4966288;28;20049;-74
2023/12/03 12:17:53;;;;;;;48.97;20.63;;;1.30;99.90;;;;;;4955415;28;20141;-75
2023/12/03 12:20:26;;;;;;;37.88;17.90;;;1.20;99.90;;;;;;4965553;28;20188;-74
2023/12/03 12:22:52;;;;;;;41.83;16.83;;;1.20;99.90;;;;;;4950590;28;20122;-74
2023/12/03 12:25:19;;;;;;;29.05;13.73;;;1.10;99.90;;;;;;4963007;28;20049;-75
2023/12/03 12:27:46;;;;;;;43.33;19.38;;;1.50;99.90;;;;;;4973545;28;20113;-74
2023/12/03 12:30:17;;;;;;;54.38;20.17;;;1.10;99.90;;;;;;4962400;28;20533;-74
2023/12/03 12:32:43;;;;;;;41.10;19.48;;;1.10;99.90;;;;;;4982673;28;20043;-74
2023/12/03 12:35:09;;;;;;;47.75;20.55;;;1.20;99.90;;;;;;4962999;28;20094;-73